Main page
METAR-TAF:

METAR-TAF

Airports :

León Airport

León, Spain

latitude: 42-35N, longitude: 005-39W, elevation: 926 m

Current weather observation

The report was made 22 minutes ago, at 04:30 UTC
Wind 1 kt from variable directions
Temperature -4°C
Humidity 100%
Pressure 1017 hPa
Visibility: 0150 m
freezing fog

METAR: LELN 160430Z AUTO VRB01KT 0150 R23/0125N R05/0400N FZFG VV001 M04/M04 Q1017

Time: 05:52 (04:52 UTC)

Forecast

The report was made 2 hours and 52 minutes ago, at 02:00 UTC
Forecast valid from 16 at 03 UTC to 16 at 12 UTC
Wind 4 kt from variable directions
Visibility: 0200 m
Broken clouds at a height of 100 ft
freezing fog
Probability 40% :
Temporary
from 16 at 03 UTC to 16 at 10 UTC
Visibility: 1400 m
patches of fog
Becoming
from 16 at 11 UTC to 16 at 12 UTC
Visibility: 2500 m
Broken clouds at a height of 800 ft
mist

TAF: LELN 160200Z 1603/1612 VRB04KT 0200 FZFG BKN001 PROB40 TEMPO 1603/1610 1400 BCFG BECMG 1611/1612 2500 BR BKN008

Weather observations and forecasts of more than 4000 airports (METAR and TAF reports).

The available stations are represented by yellow and red dots on the map.

Hover mouse over dot to see the name of the station.

Then click to see weather observations and forecasts.

To change the map : click on the green buttons with a black cross to zoom in, on the green button with a dash to zoom out, or on the green arrows for adjacent maps.


METAR-TAF: